sensor_id;sensor_type;location;lat;lon;timestamp;P1;durP1;ratioP1;P2;durP2;ratioP2
72275;SDS011;61204;49.980;8.358;2023-08-12T00:00:34;6.07;;;4.07;;
72275;SDS011;61204;49.980;8.358;2023-08-12T00:03:01;7.38;;;4.90;;
72275;SDS011;61204;49.980;8.358;2023-08-12T00:05:27;5.60;;;4.25;;
72275;SDS011;61204;49.980;8.358;2023-08-12T00:07:55;5.95;;;4.03;;
72275;SDS011;61204;49.980;8.358;2023-08-12T00:10:20;6.15;;;3.97;;
72275;SDS011;61204;49.980;8.358;2023-08-12T00:12:46;6.72;;;4.35;;
72275;SDS011;61204;49.980;8.358;2023-08-12T00:15:12;6.97;;;3.75;;
72275;SDS011;61204;49.980;8.358;2023-08-12T00:17:37;7.40;;;4.68;;
72275;SDS011;61204;49.980;8.358;2023-08-12T00:20:06;8.10;;;4.78;;
72275;SDS011;61204;49.980;8.358;2023-08-12T00:22:35;4.47;;;3.95;;
72275;SDS011;61204;49.980;8.358;2023-08-12T00:25:01;7.28;;;4.20;;
72275;SDS011;61204;49.980;8.358;2023-08-12T00:27:28;5.57;;;3.75;;
72275;SDS011;61204;49.980;8.358;2023-08-12T00:29:54;7.20;;;4.30;;
72275;SDS011;61204;49.980;8.358;2023-08-12T00:32:20;5.03;;;4.00;;
72275;SDS011;61204;49.980;8.358;2023-08-12T00:34:45;5.82;;;3.95;;
72275;SDS011;61204;49.980;8.358;2023-08-12T00:37:11;5.95;;;3.55;;
72275;SDS011;61204;49.980;8.358;2023-08-12T00:39:38;6.80;;;4.25;;
72275;SDS011;61204;49.980;8.358;2023-08-12T00:42:04;5.07;;;3.45;;
72275;SDS011;61204;49.980;8.358;2023-08-12T00:44:30;5.30;;;3.58;;
72275;SDS011;61204;49.980;8.358;2023-08-12T00:46:58;4.93;;;3.72;;
72275;SDS011;61204;49.980;8.358;2023-08-12T00:49:24;5.95;;;3.88;;
72275;SDS011;61204;49.980;8.358;2023-08-12T00:51:52;4.95;;;3.80;;
72275;SDS011;61204;49.980;8.358;2023-08-12T00:54:19;4.88;;;3.80;;
72275;SDS011;61204;49.980;8.358;2023-08-12T00:56:49;4.65;;;3.63;;
72275;SDS011;61204;49.980;8.358;2023-08-12T00:59:15;5.05;;;3.78;;
72275;SDS011;61204;49.980;8.358;2023-08-12T01:01:44;7.68;;;4.00;;
72275;SDS011;61204;49.980;8.358;2023-08-12T01:04:10;6.45;;;3.97;;
72275;SDS011;61204;49.980;8.358;2023-08-12T01:06:36;7.68;;;3.45;;
72275;SDS011;61204;49.980;8.358;2023-08-12T01:09:02;6.63;;;3.65;;
72275;SDS011;61204;49.980;8.358;2023-08-12T01:11:36;5.60;;;3.90;;
72275;SDS011;61204;49.980;8.358;2023-08-12T01:14:18;5.70;;;3.78;;
72275;SDS011;61204;49.980;8.358;2023-08-12T01:17:02;5.40;;;3.47;;
72275;SDS011;61204;49.980;8.358;2023-08-12T01:19:38;5.60;;;3.65;;
72275;SDS011;61204;49.980;8.358;2023-08-12T01:22:09;4.45;;;2.97;;
72275;SDS011;61204;49.980;8.358;2023-08-12T01:24:41;7.88;;;3.75;;
72275;SDS011;61204;49.980;8.358;2023-08-12T01:27:10;5.00;;;3.40;;
72275;SDS011;61204;49.980;8.358;2023-08-12T01:29:39;5.13;;;3.75;;
72275;SDS011;61204;49.980;8.358;2023-08-12T01:32:16;6.35;;;3.60;;
72275;SDS011;61204;49.980;8.358;2023-08-12T01:37:46;4.68;;;3.30;;
72275;SDS011;61204;49.980;8.358;2023-08-12T01:40:16;4.68;;;3.70;;
72275;SDS011;61204;49.980;8.358;2023-08-12T01:42:44;5.95;;;3.55;;
72275;SDS011;61204;49.980;8.358;2023-08-12T01:45:11;5.57;;;3.83;;
72275;SDS011;61204;49.980;8.358;2023-08-12T01:47:42;10.65;;;5.00;;
72275;SDS011;61204;49.980;8.358;2023-08-12T01:50:11;7.10;;;4.10;;
72275;SDS011;61204;49.980;8.358;2023-08-12T01:52:37;5.25;;;3.88;;
72275;SDS011;61204;49.980;8.358;2023-08-12T01:55:05;6.63;;;3.90;;
72275;SDS011;61204;49.980;8.358;2023-08-12T01:57:31;6.45;;;4.55;;
72275;SDS011;61204;49.980;8.358;2023-08-12T01:59:56;8.60;;;4.20;;
72275;SDS011;61204;49.980;8.358;2023-08-12T02:02:22;6.20;;;4.28;;
72275;SDS011;61204;49.980;8.358;2023-08-12T02:04:49;8.95;;;4.70;;
72275;SDS011;61204;49.980;8.358;2023-08-12T02:07:17;6.85;;;4.70;;
72275;SDS011;61204;49.980;8.358;2023-08-12T02:09:42;5.68;;;4.55;;
72275;SDS011;61204;49.980;8.358;2023-08-12T02:12:08;6.45;;;4.88;;
72275;SDS011;61204;49.980;8.358;2023-08-12T02:14:34;7.85;;;5.22;;
72275;SDS011;61204;49.980;8.358;2023-08-12T02:17:01;6.68;;;4.80;;
72275;SDS011;61204;49.980;8.358;2023-08-12T02:19:30;7.68;;;4.60;;
72275;SDS011;61204;49.980;8.358;2023-08-12T02:22:00;6.60;;;5.20;;
72275;SDS011;61204;49.980;8.358;2023-08-12T02:24:30;6.47;;;4.70;;
72275;SDS011;61204;49.980;8.358;2023-08-12T02:26:55;8.65;;;5.38;;
72275;SDS011;61204;49.980;8.358;2023-08-12T02:29:23;10.05;;;6.28;;
72275;SDS011;61204;49.980;8.358;2023-08-12T02:31:49;7.18;;;5.65;;
72275;SDS011;61204;49.980;8.358;2023-08-12T02:34:17;6.10;;;5.18;;
72275;SDS011;61204;49.980;8.358;2023-08-12T02:36:42;8.32;;;5.65;;
72275;SDS011;61204;49.980;8.358;2023-08-12T02:39:08;8.27;;;5.90;;
72275;SDS011;61204;49.980;8.358;2023-08-12T02:41:36;9.43;;;5.32;;
72275;SDS011;61204;49.980;8.358;2023-08-12T02:44:03;6.40;;;5.22;;
72275;SDS011;61204;49.980;8.358;2023-08-12T02:46:29;9.52;;;5.07;;
72275;SDS011;61204;49.980;8.358;2023-08-12T02:48:55;6.28;;;4.53;;
72275;SDS011;61204;49.980;8.358;2023-08-12T02:51:23;7.13;;;4.88;;
72275;SDS011;61204;49.980;8.358;2023-08-12T02:53:48;5.70;;;4.82;;
72275;SDS011;61204;49.980;8.358;2023-08-12T02:56:16;6.10;;;4.50;;
72275;SDS011;61204;49.980;8.358;2023-08-12T02:58:41;9.55;;;5.32;;
72275;SDS011;61204;49.980;8.358;2023-08-12T03:01:07;5.13;;;4.18;;
72275;SDS011;61204;49.980;8.358;2023-08-12T03:03:33;8.57;;;5.28;;
72275;SDS011;61204;49.980;8.358;2023-08-12T03:05:58;6.88;;;4.38;;
72275;SDS011;61204;49.980;8.358;2023-08-12T03:08:24;5.32;;;4.28;;
72275;SDS011;61204;49.980;8.358;2023-08-12T03:10:50;6.38;;;4.75;;
72275;SDS011;61204;49.980;8.358;2023-08-12T03:13:15;10.20;;;4.68;;
72275;SDS011;61204;49.980;8.358;2023-08-12T03:15:41;5.78;;;4.75;;
72275;SDS011;61204;49.980;8.358;2023-08-12T03:18:07;5.88;;;5.20;;
72275;SDS011;61204;49.980;8.358;2023-08-12T03:20:33;7.00;;;4.53;;
72275;SDS011;61204;49.980;8.358;2023-08-12T03:22:59;7.03;;;5.00;;
72275;SDS011;61204;49.980;8.358;2023-08-12T03:25:25;7.50;;;5.05;;
72275;SDS011;61204;49.980;8.358;2023-08-12T03:27:51;8.02;;;5.90;;
72275;SDS011;61204;49.980;8.358;2023-08-12T03:30:16;6.80;;;5.82;;
72275;SDS011;61204;49.980;8.358;2023-08-12T03:32:45;6.55;;;5.57;;
72275;SDS011;61204;49.980;8.358;2023-08-12T03:35:10;6.68;;;5.57;;
72275;SDS011;61204;49.980;8.358;2023-08-12T03:37:36;8.23;;;6.20;;
72275;SDS011;61204;49.980;8.358;2023-08-12T03:40:01;7.63;;;5.97;;
72275;SDS011;61204;49.980;8.358;2023-08-12T03:42:30;9.23;;;6.65;;
72275;SDS011;61204;49.980;8.358;2023-08-12T03:44:56;8.75;;;6.97;;
72275;SDS011;61204;49.980;8.358;2023-08-12T03:47:21;10.48;;;8.38;;
72275;SDS011;61204;49.980;8.358;2023-08-12T03:49:48;10.40;;;8.77;;
72275;SDS011;61204;49.980;8.358;2023-08-12T03:52:14;11.98;;;8.82;;
72275;SDS011;61204;49.980;8.358;2023-08-12T03:54:39;13.90;;;10.43;;
72275;SDS011;61204;49.980;8.358;2023-08-12T03:57:05;13.93;;;10.27;;
72275;SDS011;61204;49.980;8.358;2023-08-12T03:59:31;14.20;;;10.18;;
72275;SDS011;61204;49.980;8.358;2023-08-12T04:01:56;12.25;;;8.93;;
72275;SDS011;61204;49.980;8.358;2023-08-12T04:04:22;12.07;;;9.93;;
72275;SDS011;61204;49.980;8.358;2023-08-12T04:06:48;12.13;;;9.40;;
72275;SDS011;61204;49.980;8.358;2023-08-12T04:09:17;14.05;;;9.98;;
72275;SDS011;61204;49.980;8.358;2023-08-12T04:11:43;12.48;;;9.40;;
72275;SDS011;61204;49.980;8.358;2023-08-12T04:14:10;11.07;;;8.95;;
72275;SDS011;61204;49.980;8.358;2023-08-12T04:16:38;13.25;;;9.55;;
72275;SDS011;61204;49.980;8.358;2023-08-12T04:19:04;13.18;;;10.32;;
72275;SDS011;61204;49.980;8.358;2023-08-12T04:21:29;13.70;;;10.90;;
72275;SDS011;61204;49.980;8.358;2023-08-12T04:23:55;12.55;;;9.82;;
72275;SDS011;61204;49.980;8.358;2023-08-12T04:26:21;13.80;;;10.25;;
72275;SDS011;61204;49.980;8.358;2023-08-12T04:28:46;13.07;;;10.55;;
72275;SDS011;61204;49.980;8.358;2023-08-12T04:31:12;13.80;;;10.07;;
72275;SDS011;61204;49.980;8.358;2023-08-12T04:33:37;17.38;;;10.60;;
72275;SDS011;61204;49.980;8.358;2023-08-12T04:36:03;11.85;;;9.77;;
72275;SDS011;61204;49.980;8.358;2023-08-12T04:38:29;13.45;;;10.05;;
72275;SDS011;61204;49.980;8.358;2023-08-12T04:40:57;13.45;;;10.18;;
72275;SDS011;61204;49.980;8.358;2023-08-12T04:43:23;12.50;;;10.55;;
72275;SDS011;61204;49.980;8.358;2023-08-12T04:45:51;14.13;;;10.80;;
72275;SDS011;61204;49.980;8.358;2023-08-12T04:48:17;14.88;;;11.07;;
72275;SDS011;61204;49.980;8.358;2023-08-12T04:50:43;13.85;;;10.40;;
72275;SDS011;61204;49.980;8.358;2023-08-12T04:53:09;17.45;;;10.98;;
72275;SDS011;61204;49.980;8.358;2023-08-12T04:55:35;16.88;;;11.63;;
72275;SDS011;61204;49.980;8.358;2023-08-12T04:58:01;13.90;;;10.80;;
72275;SDS011;61204;49.980;8.358;2023-08-12T05:00:28;14.48;;;11.13;;
72275;SDS011;61204;49.980;8.358;2023-08-12T05:02:54;16.27;;;11.95;;
72275;SDS011;61204;49.980;8.358;2023-08-12T05:05:21;14.35;;;10.80;;
72275;SDS011;61204;49.980;8.358;2023-08-12T05:07:47;14.93;;;10.93;;
72275;SDS011;61204;49.980;8.358;2023-08-12T05:10:14;15.55;;;11.13;;
72275;SDS011;61204;49.980;8.358;2023-08-12T05:12:42;14.52;;;10.85;;
72275;SDS011;61204;49.980;8.358;2023-08-12T05:15:09;13.45;;;11.00;;
72275;SDS011;61204;49.980;8.358;2023-08-12T05:17:36;16.17;;;12.10;;
72275;SDS011;61204;49.980;8.358;2023-08-12T05:20:05;13.45;;;10.73;;
72275;SDS011;61204;49.980;8.358;2023-08-12T05:22:31;13.82;;;10.75;;
72275;SDS011;61204;49.980;8.358;2023-08-12T05:24:57;17.65;;;11.95;;
72275;SDS011;61204;49.980;8.358;2023-08-12T05:27:23;12.48;;;10.27;;
72275;SDS011;61204;49.980;8.358;2023-08-12T05:29:48;11.98;;;9.18;;
72275;SDS011;61204;49.980;8.358;2023-08-12T05:32:16;10.98;;;8.82;;
72275;SDS011;61204;49.980;8.358;2023-08-12T05:34:42;11.70;;;8.65;;
72275;SDS011;61204;49.980;8.358;2023-08-12T05:37:07;10.20;;;8.95;;
72275;SDS011;61204;49.980;8.358;2023-08-12T05:39:34;10.00;;;7.93;;
72275;SDS011;61204;49.980;8.358;2023-08-12T05:41:59;9.32;;;7.40;;
72275;SDS011;61204;49.980;8.358;2023-08-12T05:44:25;7.68;;;6.72;;
72275;SDS011;61204;49.980;8.358;2023-08-12T05:46:50;9.60;;;7.20;;
72275;SDS011;61204;49.980;8.358;2023-08-12T05:49:16;9.18;;;6.93;;
72275;SDS011;61204;49.980;8.358;2023-08-12T05:51:41;7.82;;;6.47;;
72275;SDS011;61204;49.980;8.358;2023-08-12T05:54:07;7.22;;;5.57;;
72275;SDS011;61204;49.980;8.358;2023-08-12T05:56:33;7.63;;;5.97;;
72275;SDS011;61204;49.980;8.358;2023-08-12T05:59:01;6.80;;;5.50;;
72275;SDS011;61204;49.980;8.358;2023-08-12T06:01:26;7.57;;;5.05;;
72275;SDS011;61204;49.980;8.358;2023-08-12T06:03:52;7.55;;;4.55;;
72275;SDS011;61204;49.980;8.358;2023-08-12T06:06:19;7.93;;;5.88;;
72275;SDS011;61204;49.980;8.358;2023-08-12T06:08:45;6.68;;;5.07;;
72275;SDS011;61204;49.980;8.358;2023-08-12T06:11:10;6.97;;;4.72;;
72275;SDS011;61204;49.980;8.358;2023-08-12T06:13:36;8.77;;;5.25;;
72275;SDS011;61204;49.980;8.358;2023-08-12T06:16:02;6.93;;;4.47;;
72275;SDS011;61204;49.980;8.358;2023-08-12T06:18:27;8.15;;;5.22;;
72275;SDS011;61204;49.980;8.358;2023-08-12T06:20:53;6.80;;;4.53;;
72275;SDS011;61204;49.980;8.358;2023-08-12T06:23:19;5.65;;;5.07;;
72275;SDS011;61204;49.980;8.358;2023-08-12T06:25:47;6.25;;;4.80;;
72275;SDS011;61204;49.980;8.358;2023-08-12T06:28:14;6.53;;;4.88;;
72275;SDS011;61204;49.980;8.358;2023-08-12T06:30:40;5.95;;;4.40;;
72275;SDS011;61204;49.980;8.358;2023-08-12T06:33:11;4.70;;;4.07;;
72275;SDS011;61204;49.980;8.358;2023-08-12T06:35:36;6.10;;;4.43;;
72275;SDS011;61204;49.980;8.358;2023-08-12T06:38:02;5.00;;;4.20;;
72275;SDS011;61204;49.980;8.358;2023-08-12T06:40:28;5.65;;;4.60;;
72275;SDS011;61204;49.980;8.358;2023-08-12T06:42:55;5.85;;;4.60;;
72275;SDS011;61204;49.980;8.358;2023-08-12T06:45:23;7.65;;;5.43;;
72275;SDS011;61204;49.980;8.358;2023-08-12T06:47:49;7.63;;;5.07;;
72275;SDS011;61204;49.980;8.358;2023-08-12T06:50:14;7.55;;;4.93;;
72275;SDS011;61204;49.980;8.358;2023-08-12T06:52:45;6.07;;;4.95;;
72275;SDS011;61204;49.980;8.358;2023-08-12T06:55:10;6.28;;;4.75;;
72275;SDS011;61204;49.980;8.358;2023-08-12T06:57:36;6.25;;;4.80;;
72275;SDS011;61204;49.980;8.358;2023-08-12T07:00:04;8.23;;;4.88;;
72275;SDS011;61204;49.980;8.358;2023-08-12T07:02:30;6.25;;;4.80;;
72275;SDS011;61204;49.980;8.358;2023-08-12T07:04:56;5.97;;;5.03;;
72275;SDS011;61204;49.980;8.358;2023-08-12T07:07:22;5.70;;;5.10;;
72275;SDS011;61204;49.980;8.358;2023-08-12T07:09:50;6.88;;;5.38;;
72275;SDS011;61204;49.980;8.358;2023-08-12T07:12:15;8.98;;;5.25;;
72275;SDS011;61204;49.980;8.358;2023-08-12T07:14:43;5.88;;;4.35;;
72275;SDS011;61204;49.980;8.358;2023-08-12T07:17:09;5.13;;;4.60;;
72275;SDS011;61204;49.980;8.358;2023-08-12T07:19:34;6.60;;;5.30;;
72275;SDS011;61204;49.980;8.358;2023-08-12T07:22:00;4.90;;;4.28;;
72275;SDS011;61204;49.980;8.358;2023-08-12T07:24:25;6.43;;;5.22;;
72275;SDS011;61204;49.980;8.358;2023-08-12T07:26:51;5.95;;;4.28;;
72275;SDS011;61204;49.980;8.358;2023-08-12T07:29:16;6.40;;;5.28;;
72275;SDS011;61204;49.980;8.358;2023-08-12T07:31:44;6.22;;;5.03;;
72275;SDS011;61204;49.980;8.358;2023-08-12T07:34:12;7.93;;;5.05;;
72275;SDS011;61204;49.980;8.358;2023-08-12T07:36:38;8.20;;;4.93;;
72275;SDS011;61204;49.980;8.358;2023-08-12T07:39:05;6.70;;;5.35;;
72275;SDS011;61204;49.980;8.358;2023-08-12T07:41:32;10.50;;;5.88;;
72275;SDS011;61204;49.980;8.358;2023-08-12T07:44:00;7.15;;;5.05;;
72275;SDS011;61204;49.980;8.358;2023-08-12T07:46:27;7.43;;;4.72;;
72275;SDS011;61204;49.980;8.358;2023-08-12T07:48:54;6.00;;;4.65;;
72275;SDS011;61204;49.980;8.358;2023-08-12T07:51:21;5.35;;;4.82;;
72275;SDS011;61204;49.980;8.358;2023-08-12T07:53:46;6.78;;;5.68;;
72275;SDS011;61204;49.980;8.358;2023-08-12T07:56:12;7.20;;;5.10;;
72275;SDS011;61204;49.980;8.358;2023-08-12T07:58:37;7.32;;;4.65;;
72275;SDS011;61204;49.980;8.358;2023-08-12T08:01:03;8.35;;;5.15;;
72275;SDS011;61204;49.980;8.358;2023-08-12T08:03:30;7.45;;;5.30;;
72275;SDS011;61204;49.980;8.358;2023-08-12T08:05:56;8.25;;;5.28;;
72275;SDS011;61204;49.980;8.358;2023-08-12T08:08:21;6.72;;;4.38;;
72275;SDS011;61204;49.980;8.358;2023-08-12T08:10:47;6.95;;;4.97;;
72275;SDS011;61204;49.980;8.358;2023-08-12T08:13:12;5.82;;;4.57;;
72275;SDS011;61204;49.980;8.358;2023-08-12T08:15:38;6.10;;;5.07;;
72275;SDS011;61204;49.980;8.358;2023-08-12T08:18:04;6.47;;;5.78;;
72275;SDS011;61204;49.980;8.358;2023-08-12T08:20:30;6.68;;;5.28;;
72275;SDS011;61204;49.980;8.358;2023-08-12T08:22:59;7.25;;;4.97;;
72275;SDS011;61204;49.980;8.358;2023-08-12T08:25:27;9.13;;;5.95;;
72275;SDS011;61204;49.980;8.358;2023-08-12T08:27:53;5.78;;;4.75;;
72275;SDS011;61204;49.980;8.358;2023-08-12T08:30:19;6.75;;;5.15;;
72275;SDS011;61204;49.980;8.358;2023-08-12T08:32:47;7.97;;;5.35;;
72275;SDS011;61204;49.980;8.358;2023-08-12T08:35:13;7.72;;;5.35;;
72275;SDS011;61204;49.980;8.358;2023-08-12T08:37:40;5.55;;;4.28;;
72275;SDS011;61204;49.980;8.358;2023-08-12T08:40:06;5.00;;;4.15;;
72275;SDS011;61204;49.980;8.358;2023-08-12T08:42:33;4.82;;;3.72;;
72275;SDS011;61204;49.980;8.358;2023-08-12T08:45:02;6.38;;;4.13;;
72275;SDS011;61204;49.980;8.358;2023-08-12T08:47:37;4.25;;;3.47;;
72275;SDS011;61204;49.980;8.358;2023-08-12T08:50:05;5.05;;;3.95;;
72275;SDS011;61204;49.980;8.358;2023-08-12T08:52:36;6.05;;;4.60;;
72275;SDS011;61204;49.980;8.358;2023-08-12T08:55:03;7.18;;;4.80;;
72275;SDS011;61204;49.980;8.358;2023-08-12T08:57:29;6.28;;;5.00;;
72275;SDS011;61204;49.980;8.358;2023-08-12T08:59:55;6.25;;;5.07;;
72275;SDS011;61204;49.980;8.358;2023-08-12T09:02:23;6.30;;;4.47;;
72275;SDS011;61204;49.980;8.358;2023-08-12T09:04:51;5.43;;;4.15;;
72275;SDS011;61204;49.980;8.358;2023-08-12T09:07:19;6.28;;;4.97;;
72275;SDS011;61204;49.980;8.358;2023-08-12T09:09:46;5.75;;;3.70;;
72275;SDS011;61204;49.980;8.358;2023-08-12T09:12:17;5.95;;;4.00;;
72275;SDS011;61204;49.980;8.358;2023-08-12T09:14:44;6.93;;;4.22;;
72275;SDS011;61204;49.980;8.358;2023-08-12T09:17:13;6.63;;;4.78;;
72275;SDS011;61204;49.980;8.358;2023-08-12T09:19:40;4.43;;;3.88;;
72275;SDS011;61204;49.980;8.358;2023-08-12T09:22:07;5.40;;;3.85;;
72275;SDS011;61204;49.980;8.358;2023-08-12T09:24:36;4.85;;;4.35;;
72275;SDS011;61204;49.980;8.358;2023-08-12T09:27:02;4.40;;;3.50;;
72275;SDS011;61204;49.980;8.358;2023-08-12T09:29:32;6.05;;;4.00;;
72275;SDS011;61204;49.980;8.358;2023-08-12T09:32:13;5.63;;;3.55;;
72275;SDS011;61204;49.980;8.358;2023-08-12T09:35:02;5.22;;;3.58;;
72275;SDS011;61204;49.980;8.358;2023-08-12T09:37:30;4.13;;;3.55;;
72275;SDS011;61204;49.980;8.358;2023-08-12T09:39:59;4.53;;;3.63;;
72275;SDS011;61204;49.980;8.358;2023-08-12T09:42:25;5.90;;;3.55;;
72275;SDS011;61204;49.980;8.358;2023-08-12T09:44:53;4.53;;;2.95;;
72275;SDS011;61204;49.980;8.358;2023-08-12T09:47:23;4.18;;;3.28;;
72275;SDS011;61204;49.980;8.358;2023-08-12T09:49:52;5.03;;;3.53;;
72275;SDS011;61204;49.980;8.358;2023-08-12T09:52:21;4.10;;;2.97;;
72275;SDS011;61204;49.980;8.358;2023-08-12T09:54:47;5.70;;;3.45;;
72275;SDS011;61204;49.980;8.358;2023-08-12T09:57:17;4.03;;;3.25;;
72275;SDS011;61204;49.980;8.358;2023-08-12T09:59:49;6.22;;;3.22;;
72275;SDS011;61204;49.980;8.358;2023-08-12T10:02:18;4.63;;;2.65;;
72275;SDS011;61204;49.980;8.358;2023-08-12T10:04:46;5.25;;;2.97;;
72275;SDS011;61204;49.980;8.358;2023-08-12T10:07:20;4.43;;;3.28;;
72275;SDS011;61204;49.980;8.358;2023-08-12T10:09:48;5.47;;;3.90;;
72275;SDS011;61204;49.980;8.358;2023-08-12T10:12:14;5.60;;;4.35;;
72275;SDS011;61204;49.980;8.358;2023-08-12T10:14:41;6.25;;;4.22;;
72275;SDS011;61204;49.980;8.358;2023-08-12T10:17:08;5.13;;;3.55;;
72275;SDS011;61204;49.980;8.358;2023-08-12T10:19:36;5.07;;;3.17;;
72275;SDS011;61204;49.980;8.358;2023-08-12T10:22:08;3.60;;;2.80;;
72275;SDS011;61204;49.980;8.358;2023-08-12T10:24:35;4.50;;;3.33;;
72275;SDS011;61204;49.980;8.358;2023-08-12T10:27:04;5.25;;;3.25;;
72275;SDS011;61204;49.980;8.358;2023-08-12T10:29:30;4.60;;;3.22;;
72275;SDS011;61204;49.980;8.358;2023-08-12T10:31:56;7.30;;;4.15;;
72275;SDS011;61204;49.980;8.358;2023-08-12T10:34:25;5.15;;;3.83;;
72275;SDS011;61204;49.980;8.358;2023-08-12T10:36:55;6.72;;;4.30;;
72275;SDS011;61204;49.980;8.358;2023-08-12T10:39:25;7.10;;;4.15;;
72275;SDS011;61204;49.980;8.358;2023-08-12T10:41:56;5.38;;;3.95;;
72275;SDS011;61204;49.980;8.358;2023-08-12T10:44:27;4.65;;;3.40;;
72275;SDS011;61204;49.980;8.358;2023-08-12T10:47:23;3.85;;;3.08;;
72275;SDS011;61204;49.980;8.358;2023-08-12T10:50:01;4.80;;;3.88;;
72275;SDS011;61204;49.980;8.358;2023-08-12T10:52:33;6.18;;;3.33;;
72275;SDS011;61204;49.980;8.358;2023-08-12T10:55:30;4.03;;;3.10;;
72275;SDS011;61204;49.980;8.358;2023-08-12T10:58:17;4.88;;;3.25;;
72275;SDS011;61204;49.980;8.358;2023-08-12T11:01:03;3.63;;;3.17;;
72275;SDS011;61204;49.980;8.358;2023-08-12T11:03:52;3.97;;;3.30;;
72275;SDS011;61204;49.980;8.358;2023-08-12T11:06:29;4.03;;;3.05;;
72275;SDS011;61204;49.980;8.358;2023-08-12T11:09:13;4.20;;;3.30;;
72275;SDS011;61204;49.980;8.358;2023-08-12T11:11:44;4.18;;;3.40;;
72275;SDS011;61204;49.980;8.358;2023-08-12T11:14:27;4.90;;;3.33;;
72275;SDS011;61204;49.980;8.358;2023-08-12T11:16:55;5.78;;;3.92;;
72275;SDS011;61204;49.980;8.358;2023-08-12T11:19:23;4.78;;;3.85;;
72275;SDS011;61204;49.980;8.358;2023-08-12T11:21:54;5.45;;;3.55;;
72275;SDS011;61204;49.980;8.358;2023-08-12T11:24:34;4.43;;;2.78;;
72275;SDS011;61204;49.980;8.358;2023-08-12T11:29:39;3.47;;;2.63;;
72275;SDS011;61204;49.980;8.358;2023-08-12T11:32:14;4.22;;;3.10;;
72275;SDS011;61204;49.980;8.358;2023-08-12T11:34:47;3.53;;;2.33;;
72275;SDS011;61204;49.980;8.358;2023-08-12T11:37:15;3.33;;;2.97;;
72275;SDS011;61204;49.980;8.358;2023-08-12T11:39:54;3.20;;;2.45;;
72275;SDS011;61204;49.980;8.358;2023-08-12T11:42:35;3.05;;;1.83;;
72275;SDS011;61204;49.980;8.358;2023-08-12T11:45:11;2.63;;;1.88;;
72275;SDS011;61204;49.980;8.358;2023-08-12T11:47:52;3.00;;;2.20;;
72275;SDS011;61204;49.980;8.358;2023-08-12T11:50:32;4.53;;;2.90;;
72275;SDS011;61204;49.980;8.358;2023-08-12T11:53:06;4.35;;;2.10;;
72275;SDS011;61204;49.980;8.358;2023-08-12T11:55:34;5.18;;;2.25;;
72275;SDS011;61204;49.980;8.358;2023-08-12T11:58:17;4.28;;;2.58;;
72275;SDS011;61204;49.980;8.358;2023-08-12T12:00:50;3.88;;;2.10;;
72275;SDS011;61204;49.980;8.358;2023-08-12T12:03:24;2.90;;;2.05;;
72275;SDS011;61204;49.980;8.358;2023-08-12T12:05:56;3.67;;;2.47;;
72275;SDS011;61204;49.980;8.358;2023-08-12T12:08:28;4.18;;;2.25;;
72275;SDS011;61204;49.980;8.358;2023-08-12T12:11:06;3.72;;;2.30;;
72275;SDS011;61204;49.980;8.358;2023-08-12T12:14:08;2.55;;;2.13;;
72275;SDS011;61204;49.980;8.358;2023-08-12T12:16:48;3.60;;;2.03;;
72275;SDS011;61204;49.980;8.358;2023-08-12T12:19:26;3.17;;;1.98;;
72275;SDS011;61204;49.980;8.358;2023-08-12T12:22:18;3.35;;;2.10;;
72275;SDS011;61204;49.980;8.358;2023-08-12T12:24:59;4.50;;;1.80;;
72275;SDS011;61204;49.980;8.358;2023-08-12T12:28:04;2.92;;;1.80;;
72275;SDS011;61204;49.980;8.358;2023-08-12T12:30:53;2.83;;;1.65;;
72275;SDS011;61204;49.980;8.358;2023-08-12T12:33:25;2.38;;;1.52;;
72275;SDS011;61204;49.980;8.358;2023-08-12T12:35:59;4.00;;;1.50;;
72275;SDS011;61204;49.980;8.358;2023-08-12T12:38:32;3.17;;;1.60;;
72275;SDS011;61204;49.980;8.358;2023-08-12T12:41:14;1.88;;;1.13;;
72275;SDS011;61204;49.980;8.358;2023-08-12T12:46:38;1.75;;;1.30;;
72275;SDS011;61204;49.980;8.358;2023-08-12T12:49:06;2.10;;;1.20;;
72275;SDS011;61204;49.980;8.358;2023-08-12T12:51:47;1.83;;;1.13;;
72275;SDS011;61204;49.980;8.358;2023-08-12T12:54:18;3.70;;;1.20;;
72275;SDS011;61204;49.980;8.358;2023-08-12T12:57:01;3.65;;;1.67;;
72275;SDS011;61204;49.980;8.358;2023-08-12T12:59:40;4.15;;;1.55;;
72275;SDS011;61204;49.980;8.358;2023-08-12T13:02:13;3.85;;;1.40;;
72275;SDS011;61204;49.980;8.358;2023-08-12T13:04:44;1.63;;;1.10;;
72275;SDS011;61204;49.980;8.358;2023-08-12T13:07:38;2.78;;;1.15;;
72275;SDS011;61204;49.980;8.358;2023-08-12T13:10:09;2.13;;;1.30;;
72275;SDS011;61204;49.980;8.358;2023-08-12T13:13:17;2.55;;;1.05;;
72275;SDS011;61204;49.980;8.358;2023-08-12T13:15:57;3.03;;;1.25;;
72275;SDS011;61204;49.980;8.358;2023-08-12T13:18:33;1.25;;;0.80;;
72275;SDS011;61204;49.980;8.358;2023-08-12T13:21:22;1.90;;;1.00;;
72275;SDS011;61204;49.980;8.358;2023-08-12T13:23:56;2.05;;;1.10;;
72275;SDS011;61204;49.980;8.358;2023-08-12T13:26:33;1.98;;;1.00;;
72275;SDS011;61204;49.980;8.358;2023-08-12T13:29:15;1.55;;;1.00;;
72275;SDS011;61204;49.980;8.358;2023-08-12T13:31:48;2.78;;;1.30;;
72275;SDS011;61204;49.980;8.358;2023-08-12T13:34:24;2.45;;;1.20;;
72275;SDS011;61204;49.980;8.358;2023-08-12T13:36:52;3.22;;;1.13;;
72275;SDS011;61204;49.980;8.358;2023-08-12T13:39:42;1.70;;;1.10;;
72275;SDS011;61204;49.980;8.358;2023-08-12T13:42:23;2.15;;;1.23;;
72275;SDS011;61204;49.980;8.358;2023-08-12T13:45:01;2.13;;;1.00;;
72275;SDS011;61204;49.980;8.358;2023-08-12T13:51:01;1.83;;;1.27;;
72275;SDS011;61204;49.980;8.358;2023-08-12T13:53:51;3.78;;;1.42;;
72275;SDS011;61204;49.980;8.358;2023-08-12T13:56:20;2.20;;;0.98;;
72275;SDS011;61204;49.980;8.358;2023-08-12T13:58:50;1.80;;;0.98;;
72275;SDS011;61204;49.980;8.358;2023-08-12T14:01:21;3.60;;;1.48;;
72275;SDS011;61204;49.980;8.358;2023-08-12T14:03:55;1.58;;;0.98;;
72275;SDS011;61204;49.980;8.358;2023-08-12T14:06:37;2.85;;;1.17;;
72275;SDS011;61204;49.980;8.358;2023-08-12T14:09:06;1.85;;;0.85;;
72275;SDS011;61204;49.980;8.358;2023-08-12T14:11:50;1.40;;;0.77;;
72275;SDS011;61204;49.980;8.358;2023-08-12T14:14:30;1.73;;;1.10;;
72275;SDS011;61204;49.980;8.358;2023-08-12T14:17:31;2.42;;;1.17;;
72275;SDS011;61204;49.980;8.358;2023-08-12T14:20:05;3.75;;;1.27;;
72275;SDS011;61204;49.980;8.358;2023-08-12T14:22:33;2.13;;;1.17;;
72275;SDS011;61204;49.980;8.358;2023-08-12T14:25:11;2.17;;;1.20;;
72275;SDS011;61204;49.980;8.358;2023-08-12T14:27:44;1.80;;;1.00;;
72275;SDS011;61204;49.980;8.358;2023-08-12T14:30:24;2.17;;;1.20;;
72275;SDS011;61204;49.980;8.358;2023-08-12T14:33:03;2.30;;;1.23;;
72275;SDS011;61204;49.980;8.358;2023-08-12T14:35:45;1.77;;;1.15;;
72275;SDS011;61204;49.980;8.358;2023-08-12T14:38:21;2.72;;;1.00;;
72275;SDS011;61204;49.980;8.358;2023-08-12T14:41:04;2.45;;;1.23;;
72275;SDS011;61204;49.980;8.358;2023-08-12T14:43:42;2.25;;;1.30;;
72275;SDS011;61204;49.980;8.358;2023-08-12T14:46:11;2.42;;;0.90;;
72275;SDS011;61204;49.980;8.358;2023-08-12T14:48:57;2.00;;;1.17;;
72275;SDS011;61204;49.980;8.358;2023-08-12T14:51:49;3.15;;;1.65;;
72275;SDS011;61204;49.980;8.358;2023-08-12T14:54:54;2.03;;;1.40;;
72275;SDS011;61204;49.980;8.358;2023-08-12T14:57:36;2.13;;;1.50;;
72275;SDS011;61204;49.980;8.358;2023-08-12T15:00:05;1.90;;;1.20;;
72275;SDS011;61204;49.980;8.358;2023-08-12T15:02:35;2.83;;;1.80;;
72275;SDS011;61204;49.980;8.358;2023-08-12T15:05:26;2.78;;;1.27;;
72275;SDS011;61204;49.980;8.358;2023-08-12T15:08:00;2.10;;;1.40;;
72275;SDS011;61204;49.980;8.358;2023-08-12T15:10:38;3.10;;;1.60;;
72275;SDS011;61204;49.980;8.358;2023-08-12T15:13:09;2.08;;;1.40;;
72275;SDS011;61204;49.980;8.358;2023-08-12T15:15:44;3.15;;;1.52;;